createdAt,value
2022-12-18T00:00:12.258Z,-2.66
2022-12-18T00:03:17.456Z,-2.51
2022-12-18T00:06:20.683Z,-2.48
2022-12-18T00:09:24.780Z,-2.43
2022-12-18T00:12:26.934Z,-2.42
2022-12-18T00:15:28.983Z,-2.47
2022-12-18T00:18:31.144Z,-2.44
2022-12-18T00:21:34.525Z,-2.48
2022-12-18T00:24:36.547Z,-2.55
2022-12-18T00:27:38.643Z,-2.55
2022-12-18T00:30:40.685Z,-2.55
2022-12-18T00:33:42.970Z,-2.55
2022-12-18T00:36:45.128Z,-2.55
2022-12-18T00:39:49.463Z,-2.57
2022-12-18T00:42:57.584Z,-2.65
2022-12-18T00:45:59.588Z,-2.66
2022-12-18T00:49:01.712Z,-2.67
2022-12-18T00:52:03.772Z,-2.72
2022-12-18T00:55:06.689Z,-2.76
2022-12-18T00:58:10.671Z,-2.69
2022-12-18T01:01:12.814Z,-2.65
2022-12-18T01:04:15.406Z,-2.61
2022-12-18T01:07:17.584Z,-2.59
2022-12-18T01:10:19.761Z,-2.61
2022-12-18T01:13:21.711Z,-2.64
2022-12-18T01:16:24.246Z,-2.69
2022-12-18T01:19:26.342Z,-2.71
2022-12-18T01:22:28.665Z,-2.72
2022-12-18T01:25:30.705Z,-2.61
2022-12-18T01:28:33.128Z,-2.57
2022-12-18T01:31:35.739Z,-2.53
2022-12-18T01:34:38.498Z,-2.64
2022-12-18T01:37:40.566Z,-2.72
2022-12-18T01:40:42.680Z,-2.79
2022-12-18T01:43:47.322Z,-2.78
2022-12-18T01:46:49.332Z,-2.72
2022-12-18T01:49:51.810Z,-2.67
2022-12-18T01:53:04.996Z,-2.67
2022-12-18T01:56:07.711Z,-2.64
2022-12-18T01:59:12.642Z,-2.68
2022-12-18T02:02:15.924Z,-2.73
2022-12-18T02:05:28.064Z,-2.80
2022-12-18T02:08:36.889Z,-2.88
2022-12-18T02:11:57.026Z,-2.91
2022-12-18T02:14:59.071Z,-2.83
2022-12-18T02:18:17.522Z,-2.88
2022-12-18T02:21:22.493Z,-2.97
2022-12-18T02:24:40.467Z,-2.99
2022-12-18T02:27:45.390Z,-2.94
2022-12-18T02:30:50.296Z,-2.98
2022-12-18T02:33:56.452Z,-2.90
2022-12-18T02:37:02.259Z,-2.82
2022-12-18T02:40:06.135Z,-2.86
2022-12-18T02:43:11.822Z,-2.88
2022-12-18T02:46:26.380Z,-2.90
2022-12-18T02:49:43.428Z,-2.98
2022-12-18T02:53:10.305Z,-3.06
2022-12-18T02:56:22.808Z,-3.08
2022-12-18T02:59:41.795Z,-3.06
2022-12-18T03:02:57.478Z,-3.05
2022-12-18T03:06:26.597Z,-2.99
2022-12-18T03:09:43.178Z,-3.02
2022-12-18T03:13:08.577Z,-3.07
2022-12-18T03:16:16.642Z,-3.14
2022-12-18T03:19:23.491Z,-3.19
2022-12-18T03:22:30.448Z,-3.18
2022-12-18T03:25:35.456Z,-3.13
2022-12-18T03:28:43.255Z,-3.05
2022-12-18T03:31:50.836Z,-3.04
2022-12-18T03:34:56.521Z,-3.04
2022-12-18T03:37:58.811Z,-3.05
2022-12-18T03:41:07.611Z,-3.09
2022-12-18T03:44:41.800Z,-3.11
2022-12-18T03:47:46.476Z,-3.14
2022-12-18T03:50:58.437Z,-3.16
2022-12-18T03:54:03.665Z,-3.15
2022-12-18T03:57:16.921Z,-3.11
2022-12-18T04:00:20.628Z,-3.11
2022-12-18T04:03:26.556Z,-3.17
2022-12-18T04:06:40.464Z,-3.21
2022-12-18T04:09:44.787Z,-3.21
2022-12-18T04:12:47.127Z,-3.17
2022-12-18T04:15:49.324Z,-3.31
2022-12-18T04:18:51.707Z,-3.19
2022-12-18T04:21:57.024Z,-3.22
2022-12-18T04:24:59.110Z,-3.24
2022-12-18T04:28:01.159Z,-3.21
2022-12-18T04:31:03.694Z,-3.22
2022-12-18T04:34:05.800Z,-3.27
2022-12-18T04:37:07.784Z,-3.30
2022-12-18T04:40:10.607Z,-3.33
2022-12-18T04:43:12.949Z,-3.36
2022-12-18T04:46:15.523Z,-3.36
2022-12-18T04:49:18.298Z,-3.39
2022-12-18T04:52:20.317Z,-3.37
2022-12-18T04:55:22.803Z,-3.35
2022-12-18T04:58:25.175Z,-3.35
2022-12-18T05:01:34.100Z,-3.40
2022-12-18T05:04:36.835Z,-3.42
2022-12-18T05:07:38.830Z,-3.44
2022-12-18T05:10:40.893Z,-3.50
2022-12-18T05:13:45.460Z,-3.54
2022-12-18T05:16:47.628Z,-3.64
2022-12-18T05:19:49.982Z,-3.66
2022-12-18T05:22:52.675Z,-3.63
2022-12-18T05:25:56.796Z,-3.57
2022-12-18T05:28:58.842Z,-3.55
2022-12-18T05:32:00.844Z,-3.58
2022-12-18T05:35:03.263Z,-3.60
2022-12-18T05:38:05.393Z,-3.71
2022-12-18T05:41:08.793Z,-3.82
2022-12-18T05:44:10.788Z,-3.89
2022-12-18T05:47:12.911Z,-3.94
2022-12-18T05:50:15.025Z,-4.03
2022-12-18T05:53:20.475Z,-4.11
2022-12-18T05:56:23.568Z,-4.10
2022-12-18T05:59:25.595Z,-4.12
2022-12-18T06:02:27.752Z,-4.12
2022-12-18T06:05:29.879Z,-4.16
2022-12-18T06:08:32.091Z,-4.22
2022-12-18T06:11:34.126Z,-4.27
2022-12-18T06:14:36.135Z,-4.34
2022-12-18T06:17:38.407Z,-4.36
2022-12-18T06:20:42.470Z,-4.42
2022-12-18T06:23:44.752Z,-4.49
2022-12-18T06:26:46.855Z,-4.54
2022-12-18T06:29:48.875Z,-4.52
2022-12-18T06:32:56.371Z,-4.57
2022-12-18T06:36:09.208Z,-4.62
2022-12-18T06:39:11.407Z,-4.60
2022-12-18T06:42:13.808Z,-4.62
2022-12-18T06:45:16.237Z,-4.61
2022-12-18T06:48:18.311Z,-4.64
2022-12-18T06:51:22.145Z,-4.66
2022-12-18T06:54:24.162Z,-4.65
2022-12-18T06:57:26.353Z,-4.61
2022-12-18T07:00:28.453Z,-4.54
2022-12-18T07:03:30.938Z,-4.55
2022-12-18T07:06:32.998Z,-4.54
2022-12-18T07:09:35.365Z,-4.54
2022-12-18T07:12:37.463Z,-4.54
2022-12-18T07:15:39.512Z,-4.49
2022-12-18T07:18:41.634Z,-4.34
2022-12-18T07:21:43.749Z,-4.29
2022-12-18T07:24:45.973Z,-4.22
2022-12-18T07:27:47.971Z,-4.19
2022-12-18T07:30:50.039Z,-4.14
2022-12-18T07:33:53.031Z,-4.12
2022-12-18T07:36:55.049Z,-4.09
2022-12-18T07:39:57.133Z,-3.95
2022-12-18T07:42:59.274Z,-3.80
2022-12-18T07:46:01.768Z,-3.68
2022-12-18T07:49:03.898Z,-3.60
2022-12-18T07:52:05.920Z,-3.49
2022-12-18T07:55:08.498Z,-3.34
2022-12-18T07:58:11.042Z,-3.28
2022-12-18T08:01:13.351Z,-3.16
2022-12-18T08:04:15.475Z,-3.08
2022-12-18T08:07:17.467Z,-2.93
2022-12-18T08:10:20.324Z,-2.77
2022-12-18T08:13:22.747Z,-2.54
2022-12-18T08:16:25.423Z,-2.40
2022-12-18T08:19:27.524Z,-2.27
2022-12-18T08:22:29.706Z,-2.16
2022-12-18T08:25:31.775Z,-1.93
2022-12-18T08:28:34.739Z,-1.76
2022-12-18T08:31:38.404Z,-1.44
2022-12-18T08:34:40.545Z,-1.10
2022-12-18T08:37:42.536Z,-0.80
2022-12-18T08:40:44.649Z,-0.44
2022-12-18T08:44:05.641Z,-0.22
2022-12-18T08:47:08.613Z,-0.29
2022-12-18T08:50:10.941Z,-0.27
2022-12-18T08:53:13.222Z,-0.17
2022-12-18T08:56:15.632Z,0.02
2022-12-18T08:59:20.111Z,0.00
2022-12-18T09:02:23.004Z,-0.06
2022-12-18T09:05:25.352Z,0.00
2022-12-18T09:08:28.265Z,-0.31
2022-12-18T09:11:31.053Z,-0.53
2022-12-18T09:14:33.208Z,-0.60
2022-12-18T09:17:35.272Z,-0.61
2022-12-18T09:20:38.574Z,-0.79
2022-12-18T09:23:40.941Z,-0.76
2022-12-18T09:26:43.475Z,-0.78
2022-12-18T09:29:48.993Z,-0.86
2022-12-18T09:32:51.197Z,-0.95
2022-12-18T09:35:53.297Z,-0.99
2022-12-18T09:38:55.854Z,-0.98
2022-12-18T09:42:00.001Z,-0.99
2022-12-18T09:45:03.563Z,-0.94
2022-12-18T09:48:08.255Z,-0.92
2022-12-18T09:51:27.535Z,-0.84
2022-12-18T09:54:41.778Z,-0.75
2022-12-18T09:57:52.437Z,-0.68
2022-12-18T10:00:55.371Z,-0.60
2022-12-18T10:03:57.986Z,-0.58
2022-12-18T10:07:13.115Z,-0.52
2022-12-18T10:10:44.385Z,-0.37
2022-12-18T10:14:18.623Z,0.12
2022-12-18T10:17:40.081Z,0.90
2022-12-18T10:20:54.112Z,1.68
2022-12-18T10:24:14.798Z,2.29
2022-12-18T10:27:22.572Z,2.98
2022-12-18T10:30:26.259Z,3.29
2022-12-18T10:33:31.338Z,3.73
2022-12-18T10:36:33.354Z,3.87
2022-12-18T10:39:35.430Z,3.69
2022-12-18T10:42:37.532Z,3.24
2022-12-18T10:45:40.561Z,3.32
2022-12-18T10:48:53.957Z,2.70
2022-12-18T10:52:26.819Z,2.62
2022-12-18T10:55:34.592Z,2.56
2022-12-18T10:58:38.844Z,2.52
2022-12-18T11:01:47.146Z,2.58
2022-12-18T11:04:53.639Z,2.55
2022-12-18T11:07:57.324Z,2.40
2022-12-18T11:10:59.622Z,2.46
2022-12-18T11:14:07.950Z,2.47
2022-12-18T11:17:26.669Z,2.54
2022-12-18T11:20:34.659Z,2.37
2022-12-18T11:23:38.679Z,2.43
2022-12-18T11:26:41.176Z,2.30
2022-12-18T11:29:46.538Z,2.29
2022-12-18T11:32:58.255Z,2.18
2022-12-18T11:36:06.558Z,2.18
2022-12-18T11:39:21.000Z,2.28
2022-12-18T11:42:49.398Z,2.30
2022-12-18T11:45:55.638Z,2.31
2022-12-18T11:49:26.767Z,2.46
2022-12-18T11:52:39.311Z,2.49
2022-12-18T11:55:56.431Z,2.48
2022-12-18T11:59:09.218Z,2.50
2022-12-18T12:02:29.702Z,2.38
2022-12-18T12:05:52.027Z,2.38
2022-12-18T12:09:06.163Z,2.50
2022-12-18T12:12:17.146Z,2.39
2022-12-18T12:15:19.180Z,2.49
2022-12-18T12:18:34.439Z,2.34
2022-12-18T12:21:46.218Z,2.33
2022-12-18T12:25:16.257Z,2.28
2022-12-18T12:29:04.173Z,2.24
2022-12-18T12:32:36.049Z,2.22
2022-12-18T12:36:15.786Z,2.26
2022-12-18T12:39:24.718Z,2.18
2022-12-18T12:42:57.967Z,2.17
2022-12-18T12:46:10.005Z,2.12
2022-12-18T12:49:18.711Z,2.13
2022-12-18T12:52:26.947Z,2.07
2022-12-18T12:55:30.964Z,2.01
2022-12-18T12:58:48.281Z,2.04
2022-12-18T13:02:24.218Z,1.89
2022-12-18T13:05:47.324Z,1.93
2022-12-18T13:09:01.207Z,1.93
2022-12-18T13:12:33.336Z,1.95
2022-12-18T13:15:39.821Z,1.85
2022-12-18T13:19:11.969Z,1.79
2022-12-18T13:22:36.566Z,1.92
2022-12-18T13:25:39.391Z,1.92
2022-12-18T13:28:48.360Z,1.98
2022-12-18T13:31:50.373Z,1.91
2022-12-18T13:35:18.515Z,2.05
2022-12-18T13:38:32.425Z,2.06
2022-12-18T13:41:35.058Z,1.96
2022-12-18T13:44:42.400Z,1.84
2022-12-18T13:47:45.003Z,1.79
2022-12-18T13:51:17.862Z,1.73
2022-12-18T13:54:41.812Z,1.71
2022-12-18T13:57:44.084Z,1.64
2022-12-18T14:00:46.423Z,1.58
2022-12-18T14:03:48.935Z,1.48
2022-12-18T14:06:57.425Z,1.42
2022-12-18T14:10:12.598Z,1.34
2022-12-18T14:13:38.521Z,1.30
2022-12-18T14:16:42.522Z,1.26
2022-12-18T14:19:51.453Z,1.20
2022-12-18T14:22:53.831Z,1.15
2022-12-18T14:25:58.569Z,1.06
2022-12-18T14:29:20.848Z,1.06
2022-12-18T14:32:23.915Z,1.06
2022-12-18T14:35:25.962Z,1.03
2022-12-18T14:38:29.913Z,0.98
2022-12-18T14:41:34.217Z,0.91
2022-12-18T14:44:50.544Z,0.82
2022-12-18T14:47:58.949Z,0.75
2022-12-18T14:51:08.069Z,0.63
2022-12-18T14:54:18.715Z,0.53
2022-12-18T14:57:38.973Z,0.33
2022-12-18T15:00:46.476Z,0.19
2022-12-18T15:03:49.317Z,0.05
2022-12-18T15:07:05.821Z,-0.07
2022-12-18T15:10:16.452Z,-0.22
2022-12-18T15:13:25.981Z,-0.24
2022-12-18T15:16:29.345Z,-0.31
2022-12-18T15:19:43.261Z,-0.47
2022-12-18T15:22:50.992Z,-0.63
2022-12-18T15:25:58.393Z,-0.76
2022-12-18T15:29:04.674Z,-0.88
2022-12-18T15:32:24.441Z,-0.97
2022-12-18T15:35:27.468Z,-0.84
2022-12-18T15:38:30.650Z,-0.87
2022-12-18T15:41:38.138Z,-0.95
2022-12-18T15:44:41.313Z,-1.07
2022-12-18T15:47:44.480Z,-1.20
2022-12-18T15:50:48.364Z,-1.32
2022-12-18T15:53:53.976Z,-1.34
2022-12-18T15:57:15.234Z,-1.36
2022-12-18T16:00:18.519Z,-1.29
2022-12-18T16:03:21.411Z,-1.30
2022-12-18T16:06:24.973Z,-1.28
2022-12-18T16:09:30.945Z,-1.35
2022-12-18T16:12:35.485Z,-1.39
2022-12-18T16:15:39.170Z,-1.45
2022-12-18T16:18:43.485Z,-1.38
2022-12-18T16:21:48.002Z,-1.44
2022-12-18T16:24:54.154Z,-1.51
2022-12-18T16:27:58.829Z,-1.45
2022-12-18T16:31:02.904Z,-1.39
2022-12-18T16:34:36.296Z,-1.37
2022-12-18T16:37:40.461Z,-1.45
2022-12-18T16:41:03.638Z,-1.48
2022-12-18T16:44:06.268Z,-1.49
2022-12-18T16:47:08.789Z,-1.54
2022-12-18T16:50:14.893Z,-1.58
2022-12-18T16:53:17.959Z,-1.63
2022-12-18T16:56:21.843Z,-1.72
2022-12-18T16:59:27.567Z,-1.80
2022-12-18T17:02:32.328Z,-1.91
2022-12-18T17:05:37.189Z,-1.96
2022-12-18T17:08:41.395Z,-2.09
2022-12-18T17:11:48.699Z,-2.16
2022-12-18T17:14:51.937Z,-2.11
2022-12-18T17:17:55.140Z,-2.17
2022-12-18T17:21:19.367Z,-2.19
2022-12-18T17:24:23.555Z,-2.23
2022-12-18T17:27:26.674Z,-2.23
2022-12-18T17:30:30.620Z,-2.30
2022-12-18T17:33:36.526Z,-2.33
2022-12-18T17:36:39.753Z,-2.32
2022-12-18T17:39:44.542Z,-2.45
2022-12-18T17:42:48.904Z,-2.54
2022-12-18T17:45:52.074Z,-2.57
2022-12-18T17:48:59.734Z,-2.52
2022-12-18T17:52:02.928Z,-2.61
2022-12-18T17:55:06.461Z,-2.60
2022-12-18T17:58:09.663Z,-2.63
2022-12-18T18:01:18.431Z,-2.65
2022-12-18T18:04:21.159Z,-2.69
2022-12-18T18:07:23.994Z,-2.73
2022-12-18T18:10:28.303Z,-2.87
2022-12-18T18:13:50.728Z,-2.91
2022-12-18T18:16:53.911Z,-2.88
2022-12-18T18:19:58.253Z,-2.88
2022-12-18T18:23:01.132Z,-2.91
2022-12-18T18:26:09.867Z,-2.92
2022-12-18T18:29:20.575Z,-3.00
2022-12-18T18:32:23.727Z,-3.02
2022-12-18T18:35:53.045Z,-3.01
2022-12-18T18:38:51.041Z,-3.05
2022-12-18T18:41:54.091Z,-3.05
2022-12-18T18:44:57.044Z,-3.17
2022-12-18T18:48:00.618Z,-3.23
2022-12-18T18:51:07.440Z,-3.27
2022-12-18T18:54:11.480Z,-3.29
2022-12-18T18:57:24.260Z,-3.34
2022-12-18T19:00:29.399Z,-3.36
2022-12-18T19:03:33.048Z,-3.37
2022-12-18T19:06:35.976Z,-3.38
2022-12-18T19:09:38.943Z,-3.37
2022-12-18T19:13:00.088Z,-3.43
2022-12-18T19:16:08.013Z,-3.43
2022-12-18T19:19:13.451Z,-3.41
2022-12-18T19:22:17.196Z,-3.35
2022-12-18T19:25:19.813Z,-3.35
2022-12-18T19:28:26.848Z,-3.36
2022-12-18T19:31:35.256Z,-3.40
2022-12-18T19:34:40.278Z,-3.43
2022-12-18T19:37:43.054Z,-3.44
2022-12-18T19:40:45.946Z,-3.42
2022-12-18T19:43:49.820Z,-3.40
2022-12-18T19:46:52.543Z,-3.44
2022-12-18T19:49:55.364Z,-3.43
2022-12-18T19:52:59.576Z,-3.46
2022-12-18T19:56:12.550Z,-3.48
2022-12-18T19:59:16.843Z,-3.46
2022-12-18T20:02:22.180Z,-3.47
2022-12-18T20:05:25.966Z,-3.51
2022-12-18T20:08:30.171Z,-3.53
2022-12-18T20:11:41.666Z,-3.56
2022-12-18T20:14:45.494Z,-3.61
2022-12-18T20:17:48.674Z,-3.64
2022-12-18T20:20:55.217Z,-3.65
2022-12-18T20:24:01.479Z,-3.64
2022-12-18T20:27:04.700Z,-3.63
2022-12-18T20:30:08.761Z,-3.56
2022-12-18T20:33:11.260Z,-3.62
2022-12-18T20:36:20.149Z,-3.60
2022-12-18T20:39:27.072Z,-3.68
2022-12-18T20:42:29.622Z,-3.72
2022-12-18T20:45:31.760Z,-3.72
2022-12-18T20:48:34.416Z,-3.69
2022-12-18T20:51:37.413Z,-3.72
2022-12-18T20:54:40.435Z,-3.79
2022-12-18T20:57:42.823Z,-3.86
2022-12-18T21:00:45.257Z,-3.90
2022-12-18T21:03:49.371Z,-3.89
2022-12-18T21:06:55.842Z,-3.92
2022-12-18T21:10:04.933Z,-3.95
2022-12-18T21:13:08.715Z,-3.97
2022-12-18T21:16:12.375Z,-3.98
2022-12-18T21:19:17.872Z,-3.99
2022-12-18T21:22:20.192Z,-4.01
2022-12-18T21:25:22.482Z,-4.07
2022-12-18T21:28:24.531Z,-4.10
2022-12-18T21:31:29.307Z,-4.10
2022-12-18T21:34:33.336Z,-4.09
2022-12-18T21:37:35.489Z,-4.12
2022-12-18T21:40:39.438Z,-4.14
2022-12-18T21:44:00.181Z,-4.17
2022-12-18T21:47:12.280Z,-4.20
2022-12-18T21:50:24.585Z,-4.23
2022-12-18T21:53:26.674Z,-4.24
2022-12-18T21:56:51.372Z,-4.24
2022-12-18T21:59:53.566Z,-4.28
2022-12-18T22:03:10.465Z,-4.30
2022-12-18T22:06:19.617Z,-4.31
2022-12-18T22:09:24.208Z,-4.36
2022-12-18T22:12:35.811Z,-4.38
2022-12-18T22:15:46.013Z,-4.40
2022-12-18T22:18:48.489Z,-4.40
2022-12-18T22:21:51.248Z,-4.44
2022-12-18T22:24:53.382Z,-4.45
2022-12-18T22:28:13.955Z,-4.48
2022-12-18T22:31:17.058Z,-4.52
2022-12-18T22:34:22.851Z,-4.53
2022-12-18T22:37:25.390Z,-4.54
2022-12-18T22:40:28.234Z,-4.38
2022-12-18T22:43:30.425Z,-4.46
2022-12-18T22:46:37.951Z,-4.52
2022-12-18T22:49:40.052Z,-4.56
2022-12-18T22:52:42.556Z,-4.60
2022-12-18T22:55:44.624Z,-4.60
2022-12-18T22:58:51.484Z,-4.53
2022-12-18T23:01:58.564Z,-4.50
2022-12-18T23:05:00.997Z,-4.50
2022-12-18T23:08:04.486Z,-4.47
2022-12-18T23:11:06.973Z,-4.27
2022-12-18T23:14:09.068Z,-4.06
2022-12-18T23:17:11.969Z,-3.74
2022-12-18T23:20:14.203Z,-3.66
2022-12-18T23:23:16.218Z,-3.66
2022-12-18T23:26:27.694Z,-3.77
2022-12-18T23:29:29.807Z,-3.93
2022-12-18T23:32:31.836Z,-3.92
2022-12-18T23:35:35.645Z,-3.87
2022-12-18T23:38:38.077Z,-3.86
2022-12-18T23:41:40.291Z,-3.92
2022-12-18T23:44:42.530Z,-3.97
2022-12-18T23:47:44.622Z,-4.07
2022-12-18T23:50:49.227Z,-4.20
2022-12-18T23:53:52.468Z,-4.25
2022-12-18T23:56:54.493Z,-4.15
2022-12-18T23:59:56.625Z,-3.83
